sensor_id;sensor_type;location;lat;lon;timestamp;temperature;humidity
46283;DHT22;32017;43.700;11.820;2022-12-07T00:01:26;9.90;99.90
46283;DHT22;32017;43.700;11.820;2022-12-07T00:03:47;9.90;99.90
46283;DHT22;32017;43.700;11.820;2022-12-07T00:06:10;9.90;99.90
46283;DHT22;32017;43.700;11.820;2022-12-07T00:08:32;9.90;99.90
46283;DHT22;32017;43.700;11.820;2022-12-07T00:10:52;9.90;99.90
46283;DHT22;32017;43.700;11.820;2022-12-07T00:13:12;9.90;99.90
46283;DHT22;32017;43.700;11.820;2022-12-07T00:15:33;9.90;99.90
46283;DHT22;32017;43.700;11.820;2022-12-07T00:17:54;9.90;99.90
46283;DHT22;32017;43.700;11.820;2022-12-07T00:20:14;9.90;99.90
46283;DHT22;32017;43.700;11.820;2022-12-07T00:22:33;9.90;99.90
46283;DHT22;32017;43.700;11.820;2022-12-07T00:24:53;9.90;99.90
46283;DHT22;32017;43.700;11.820;2022-12-07T00:27:13;10.00;99.90
46283;DHT22;32017;43.700;11.820;2022-12-07T00:29:33;9.90;99.90
46283;DHT22;32017;43.700;11.820;2022-12-07T00:31:53;9.90;99.90
46283;DHT22;32017;43.700;11.820;2022-12-07T00:34:19;9.90;99.90
46283;DHT22;32017;43.700;11.820;2022-12-07T00:36:39;9.90;99.90
46283;DHT22;32017;43.700;11.820;2022-12-07T00:39:00;9.90;99.90
46283;DHT22;32017;43.700;11.820;2022-12-07T00:41:23;9.80;99.90
46283;DHT22;32017;43.700;11.820;2022-12-07T00:43:43;9.80;99.90
46283;DHT22;32017;43.700;11.820;2022-12-07T00:46:04;9.80;99.90
46283;DHT22;32017;43.700;11.820;2022-12-07T00:48:25;9.80;99.90
46283;DHT22;32017;43.700;11.820;2022-12-07T00:50:45;9.80;99.90
46283;DHT22;32017;43.700;11.820;2022-12-07T00:53:05;9.80;99.90
46283;DHT22;32017;43.700;11.820;2022-12-07T00:55:25;9.80;99.90
46283;DHT22;32017;43.700;11.820;2022-12-07T00:57:45;9.80;99.90
46283;DHT22;32017;43.700;11.820;2022-12-07T01:00:05;9.80;99.90
46283;DHT22;32017;43.700;11.820;2022-12-07T01:02:25;9.80;99.90
46283;DHT22;32017;43.700;11.820;2022-12-07T01:04:44;9.70;99.90
46283;DHT22;32017;43.700;11.820;2022-12-07T01:07:04;9.70;99.90
46283;DHT22;32017;43.700;11.820;2022-12-07T01:09:24;9.70;99.90
46283;DHT22;32017;43.700;11.820;2022-12-07T01:11:44;9.70;99.90
46283;DHT22;32017;43.700;11.820;2022-12-07T01:14:04;9.60;99.90
46283;DHT22;32017;43.700;11.820;2022-12-07T01:16:25;9.60;99.90
46283;DHT22;32017;43.700;11.820;2022-12-07T01:18:48;9.60;99.90
46283;DHT22;32017;43.700;11.820;2022-12-07T01:21:14;9.60;99.90
46283;DHT22;32017;43.700;11.820;2022-12-07T01:23:35;9.60;99.90
46283;DHT22;32017;43.700;11.820;2022-12-07T01:25:57;9.60;99.90
46283;DHT22;32017;43.700;11.820;2022-12-07T01:28:17;9.50;99.90
46283;DHT22;32017;43.700;11.820;2022-12-07T01:30:36;9.40;99.90
46283;DHT22;32017;43.700;11.820;2022-12-07T01:32:56;9.30;99.90
46283;DHT22;32017;43.700;11.820;2022-12-07T01:35:16;9.30;99.90
46283;DHT22;32017;43.700;11.820;2022-12-07T01:37:37;9.30;99.90
46283;DHT22;32017;43.700;11.820;2022-12-07T01:39:58;9.40;99.90
46283;DHT22;32017;43.700;11.820;2022-12-07T01:42:18;9.40;99.90
46283;DHT22;32017;43.700;11.820;2022-12-07T01:47:36;9.50;99.90
46283;DHT22;32017;43.700;11.820;2022-12-07T01:49:55;9.40;99.90
46283;DHT22;32017;43.700;11.820;2022-12-07T01:52:16;9.30;99.90
46283;DHT22;32017;43.700;11.820;2022-12-07T01:54:38;9.20;99.90
46283;DHT22;32017;43.700;11.820;2022-12-07T01:56:58;9.20;99.90
46283;DHT22;32017;43.700;11.820;2022-12-07T01:59:19;9.30;99.90
46283;DHT22;32017;43.700;11.820;2022-12-07T02:01:41;9.30;99.90
46283;DHT22;32017;43.700;11.820;2022-12-07T02:04:01;9.30;99.90
46283;DHT22;32017;43.700;11.820;2022-12-07T02:06:24;9.30;99.90
46283;DHT22;32017;43.700;11.820;2022-12-07T02:08:46;9.30;99.90
46283;DHT22;32017;43.700;11.820;2022-12-07T02:11:07;9.30;99.90
46283;DHT22;32017;43.700;11.820;2022-12-07T02:13:31;9.20;99.90
46283;DHT22;32017;43.700;11.820;2022-12-07T02:29:54;9.20;99.90
46283;DHT22;32017;43.700;11.820;2022-12-07T02:35:01;9.20;99.90
46283;DHT22;32017;43.700;11.820;2022-12-07T02:37:29;9.20;99.90
46283;DHT22;32017;43.700;11.820;2022-12-07T02:39:59;9.20;99.90
46283;DHT22;32017;43.700;11.820;2022-12-07T02:42:29;9.20;99.90
46283;DHT22;32017;43.700;11.820;2022-12-07T02:44:50;9.20;99.90
46283;DHT22;32017;43.700;11.820;2022-12-07T02:47:14;9.20;99.90
46283;DHT22;32017;43.700;11.820;2022-12-07T02:49:36;9.30;99.90
46283;DHT22;32017;43.700;11.820;2022-12-07T02:51:57;9.20;99.90
46283;DHT22;32017;43.700;11.820;2022-12-07T02:54:19;9.20;99.90
46283;DHT22;32017;43.700;11.820;2022-12-07T03:04:57;9.10;99.90
46283;DHT22;32017;43.700;11.820;2022-12-07T03:07:29;9.20;99.90
46283;DHT22;32017;43.700;11.820;2022-12-07T03:10:16;9.20;99.90
46283;DHT22;32017;43.700;11.820;2022-12-07T03:12:49;9.10;99.90
46283;DHT22;32017;43.700;11.820;2022-12-07T03:15:26;9.00;99.90
46283;DHT22;32017;43.700;11.820;2022-12-07T03:17:46;9.00;99.90
46283;DHT22;32017;43.700;11.820;2022-12-07T03:20:09;8.90;99.90
46283;DHT22;32017;43.700;11.820;2022-12-07T03:22:31;8.90;99.90
46283;DHT22;32017;43.700;11.820;2022-12-07T03:25:14;8.90;99.90
46283;DHT22;32017;43.700;11.820;2022-12-07T03:30:18;8.90;99.90
46283;DHT22;32017;43.700;11.820;2022-12-07T03:32:59;8.90;99.90
46283;DHT22;32017;43.700;11.820;2022-12-07T03:35:43;9.00;99.90
46283;DHT22;32017;43.700;11.820;2022-12-07T03:38:15;9.00;99.90
46283;DHT22;32017;43.700;11.820;2022-12-07T03:40:54;9.00;99.90
46283;DHT22;32017;43.700;11.820;2022-12-07T03:43:18;9.00;99.90
46283;DHT22;32017;43.700;11.820;2022-12-07T03:45:41;9.00;99.90
46283;DHT22;32017;43.700;11.820;2022-12-07T03:48:04;9.00;99.90
46283;DHT22;32017;43.700;11.820;2022-12-07T03:50:36;9.00;99.90
46283;DHT22;32017;43.700;11.820;2022-12-07T03:53:21;9.00;99.90
46283;DHT22;32017;43.700;11.820;2022-12-07T03:55:44;9.00;99.90
46283;DHT22;32017;43.700;11.820;2022-12-07T03:58:09;8.90;99.90
46283;DHT22;32017;43.700;11.820;2022-12-07T04:00:30;9.00;99.90
46283;DHT22;32017;43.700;11.820;2022-12-07T04:02:55;9.00;99.90
46283;DHT22;32017;43.700;11.820;2022-12-07T04:05:16;8.90;99.90
46283;DHT22;32017;43.700;11.820;2022-12-07T04:07:35;8.90;99.90
46283;DHT22;32017;43.700;11.820;2022-12-07T04:09:55;8.90;99.90
46283;DHT22;32017;43.700;11.820;2022-12-07T04:12:16;8.90;99.90
46283;DHT22;32017;43.700;11.820;2022-12-07T04:14:36;8.90;99.90
46283;DHT22;32017;43.700;11.820;2022-12-07T04:16:58;8.90;99.90
46283;DHT22;32017;43.700;11.820;2022-12-07T04:19:20;8.90;99.90
46283;DHT22;32017;43.700;11.820;2022-12-07T04:21:40;8.90;99.90
46283;DHT22;32017;43.700;11.820;2022-12-07T04:24:00;8.80;99.90
46283;DHT22;32017;43.700;11.820;2022-12-07T04:26:20;8.80;99.90
46283;DHT22;32017;43.700;11.820;2022-12-07T04:28:40;8.80;99.90
46283;DHT22;32017;43.700;11.820;2022-12-07T04:31:00;8.80;99.90
46283;DHT22;32017;43.700;11.820;2022-12-07T04:33:20;8.80;99.90
46283;DHT22;32017;43.700;11.820;2022-12-07T04:35:42;8.80;99.90
46283;DHT22;32017;43.700;11.820;2022-12-07T04:38:02;8.80;99.90
46283;DHT22;32017;43.700;11.820;2022-12-07T04:40:22;8.80;99.90
46283;DHT22;32017;43.700;11.820;2022-12-07T04:42:42;8.90;99.90
46283;DHT22;32017;43.700;11.820;2022-12-07T04:45:02;9.00;99.90
46283;DHT22;32017;43.700;11.820;2022-12-07T04:47:22;9.00;99.90
46283;DHT22;32017;43.700;11.820;2022-12-07T04:49:41;8.90;99.90
46283;DHT22;32017;43.700;11.820;2022-12-07T04:52:01;8.90;99.90
46283;DHT22;32017;43.700;11.820;2022-12-07T04:54:21;8.90;99.90
46283;DHT22;32017;43.700;11.820;2022-12-07T04:56:41;8.90;99.90
46283;DHT22;32017;43.700;11.820;2022-12-07T04:59:02;8.90;99.90
46283;DHT22;32017;43.700;11.820;2022-12-07T05:01:23;8.90;99.90
46283;DHT22;32017;43.700;11.820;2022-12-07T05:03:43;8.90;99.90
46283;DHT22;32017;43.700;11.820;2022-12-07T05:06:03;8.90;99.90
46283;DHT22;32017;43.700;11.820;2022-12-07T05:08:29;8.90;99.90
46283;DHT22;32017;43.700;11.820;2022-12-07T05:10:50;8.90;99.90
46283;DHT22;32017;43.700;11.820;2022-12-07T05:13:10;8.90;99.90
46283;DHT22;32017;43.700;11.820;2022-12-07T05:15:29;9.00;99.90
46283;DHT22;32017;43.700;11.820;2022-12-07T05:17:49;9.00;99.90
46283;DHT22;32017;43.700;11.820;2022-12-07T05:20:09;9.00;99.90
46283;DHT22;32017;43.700;11.820;2022-12-07T05:22:29;9.00;99.90
46283;DHT22;32017;43.700;11.820;2022-12-07T05:24:49;9.00;99.90
46283;DHT22;32017;43.700;11.820;2022-12-07T05:27:09;8.90;99.90
46283;DHT22;32017;43.700;11.820;2022-12-07T05:29:28;8.90;99.90
46283;DHT22;32017;43.700;11.820;2022-12-07T05:31:49;8.90;99.90
46283;DHT22;32017;43.700;11.820;2022-12-07T05:34:09;8.80;99.90
46283;DHT22;32017;43.700;11.820;2022-12-07T05:36:29;8.80;99.90
46283;DHT22;32017;43.700;11.820;2022-12-07T05:38:51;8.80;99.90
46283;DHT22;32017;43.700;11.820;2022-12-07T05:41:14;8.70;99.90
46283;DHT22;32017;43.700;11.820;2022-12-07T05:43:53;8.70;99.90
46283;DHT22;32017;43.700;11.820;2022-12-07T05:46:13;8.60;99.90
46283;DHT22;32017;43.700;11.820;2022-12-07T05:48:33;8.70;99.90
46283;DHT22;32017;43.700;11.820;2022-12-07T05:50:53;8.70;99.90
46283;DHT22;32017;43.700;11.820;2022-12-07T05:53:13;8.70;99.90
46283;DHT22;32017;43.700;11.820;2022-12-07T05:55:39;8.70;99.90
46283;DHT22;32017;43.700;11.820;2022-12-07T05:57:58;8.70;99.90
46283;DHT22;32017;43.700;11.820;2022-12-07T06:00:36;8.80;99.90
46283;DHT22;32017;43.700;11.820;2022-12-07T06:02:56;8.80;99.90
46283;DHT22;32017;43.700;11.820;2022-12-07T06:05:16;8.80;99.90
46283;DHT22;32017;43.700;11.820;2022-12-07T06:07:36;8.80;99.90
46283;DHT22;32017;43.700;11.820;2022-12-07T06:09:56;8.80;99.90
46283;DHT22;32017;43.700;11.820;2022-12-07T06:12:16;8.90;99.90
46283;DHT22;32017;43.700;11.820;2022-12-07T06:14:55;9.00;99.90
46283;DHT22;32017;43.700;11.820;2022-12-07T06:17:15;9.00;99.90
46283;DHT22;32017;43.700;11.820;2022-12-07T06:19:35;9.00;99.90
46283;DHT22;32017;43.700;11.820;2022-12-07T06:21:55;9.00;99.90
46283;DHT22;32017;43.700;11.820;2022-12-07T06:24:16;8.90;99.90
46283;DHT22;32017;43.700;11.820;2022-12-07T06:26:38;9.00;99.90
46283;DHT22;32017;43.700;11.820;2022-12-07T06:28:58;9.00;99.90
46283;DHT22;32017;43.700;11.820;2022-12-07T06:31:18;9.00;99.90
46283;DHT22;32017;43.700;11.820;2022-12-07T06:33:38;9.00;99.90
46283;DHT22;32017;43.700;11.820;2022-12-07T06:35:58;9.00;99.90
46283;DHT22;32017;43.700;11.820;2022-12-07T06:38:18;9.00;99.90
46283;DHT22;32017;43.700;11.820;2022-12-07T06:40:40;9.10;99.90
46283;DHT22;32017;43.700;11.820;2022-12-07T06:43:00;9.10;99.90
46283;DHT22;32017;43.700;11.820;2022-12-07T06:45:20;9.10;99.90
46283;DHT22;32017;43.700;11.820;2022-12-07T06:47:40;9.10;99.90
46283;DHT22;32017;43.700;11.820;2022-12-07T06:50:03;9.10;99.90
46283;DHT22;32017;43.700;11.820;2022-12-07T06:52:23;9.10;99.90
46283;DHT22;32017;43.700;11.820;2022-12-07T06:54:43;9.00;99.90
46283;DHT22;32017;43.700;11.820;2022-12-07T06:57:04;9.00;99.90
46283;DHT22;32017;43.700;11.820;2022-12-07T06:59:24;8.90;99.90
46283;DHT22;32017;43.700;11.820;2022-12-07T07:01:44;8.90;99.90
46283;DHT22;32017;43.700;11.820;2022-12-07T07:04:04;8.90;99.90
46283;DHT22;32017;43.700;11.820;2022-12-07T07:06:24;8.90;99.90
46283;DHT22;32017;43.700;11.820;2022-12-07T07:08:44;9.00;99.90
46283;DHT22;32017;43.700;11.820;2022-12-07T07:11:05;9.00;99.90
46283;DHT22;32017;43.700;11.820;2022-12-07T07:13:25;9.00;99.90
46283;DHT22;32017;43.700;11.820;2022-12-07T07:15:45;9.00;99.90
46283;DHT22;32017;43.700;11.820;2022-12-07T07:18:05;9.00;99.90
46283;DHT22;32017;43.700;11.820;2022-12-07T07:20:27;9.10;99.90
46283;DHT22;32017;43.700;11.820;2022-12-07T07:22:47;9.00;99.90
46283;DHT22;32017;43.700;11.820;2022-12-07T07:25:07;9.10;99.90
46283;DHT22;32017;43.700;11.820;2022-12-07T07:27:27;9.10;99.90
46283;DHT22;32017;43.700;11.820;2022-12-07T07:29:47;9.10;99.90
46283;DHT22;32017;43.700;11.820;2022-12-07T07:32:07;9.10;99.90
46283;DHT22;32017;43.700;11.820;2022-12-07T07:34:27;9.20;99.90
46283;DHT22;32017;43.700;11.820;2022-12-07T07:36:46;9.20;99.90
46283;DHT22;32017;43.700;11.820;2022-12-07T07:39:06;9.20;99.90
46283;DHT22;32017;43.700;11.820;2022-12-07T07:41:26;9.20;99.90
46283;DHT22;32017;43.700;11.820;2022-12-07T07:43:46;9.20;99.90
46283;DHT22;32017;43.700;11.820;2022-12-07T07:46:06;9.20;99.90
46283;DHT22;32017;43.700;11.820;2022-12-07T07:48:26;9.20;99.90
46283;DHT22;32017;43.700;11.820;2022-12-07T07:50:46;9.20;99.90
46283;DHT22;32017;43.700;11.820;2022-12-07T07:53:05;9.20;99.90
46283;DHT22;32017;43.700;11.820;2022-12-07T07:55:25;9.20;99.90
46283;DHT22;32017;43.700;11.820;2022-12-07T07:57:45;9.20;99.90
46283;DHT22;32017;43.700;11.820;2022-12-07T08:00:14;9.20;99.90
46283;DHT22;32017;43.700;11.820;2022-12-07T08:02:35;9.30;99.90
46283;DHT22;32017;43.700;11.820;2022-12-07T08:04:54;9.30;99.90
46283;DHT22;32017;43.700;11.820;2022-12-07T08:07:15;9.30;99.90
46283;DHT22;32017;43.700;11.820;2022-12-07T08:09:35;9.30;99.90
46283;DHT22;32017;43.700;11.820;2022-12-07T08:11:54;9.40;99.90
46283;DHT22;32017;43.700;11.820;2022-12-07T08:14:14;9.40;99.90
46283;DHT22;32017;43.700;11.820;2022-12-07T08:16:34;9.40;99.90
46283;DHT22;32017;43.700;11.820;2022-12-07T08:18:54;9.40;99.90
46283;DHT22;32017;43.700;11.820;2022-12-07T08:21:15;9.40;99.90
46283;DHT22;32017;43.700;11.820;2022-12-07T08:23:34;9.40;99.90
46283;DHT22;32017;43.700;11.820;2022-12-07T08:26:04;9.40;99.90
46283;DHT22;32017;43.700;11.820;2022-12-07T08:28:24;9.40;99.90
46283;DHT22;32017;43.700;11.820;2022-12-07T08:30:44;9.50;99.90
46283;DHT22;32017;43.700;11.820;2022-12-07T08:33:04;9.50;99.90
46283;DHT22;32017;43.700;11.820;2022-12-07T08:35:24;9.60;99.90
46283;DHT22;32017;43.700;11.820;2022-12-07T08:37:44;9.60;99.90
46283;DHT22;32017;43.700;11.820;2022-12-07T08:40:07;9.60;99.90
46283;DHT22;32017;43.700;11.820;2022-12-07T08:42:27;9.60;99.90
46283;DHT22;32017;43.700;11.820;2022-12-07T08:44:49;9.60;99.90
46283;DHT22;32017;43.700;11.820;2022-12-07T08:47:10;9.60;99.90
46283;DHT22;32017;43.700;11.820;2022-12-07T08:49:41;9.60;99.90
46283;DHT22;32017;43.700;11.820;2022-12-07T08:52:04;9.70;99.90
46283;DHT22;32017;43.700;11.820;2022-12-07T08:54:24;9.70;99.90
46283;DHT22;32017;43.700;11.820;2022-12-07T08:56:45;9.70;99.90
46283;DHT22;32017;43.700;11.820;2022-12-07T08:59:07;9.80;99.90
46283;DHT22;32017;43.700;11.820;2022-12-07T09:01:27;9.80;99.90
46283;DHT22;32017;43.700;11.820;2022-12-07T09:03:47;9.70;99.90
46283;DHT22;32017;43.700;11.820;2022-12-07T09:06:07;9.80;99.90
46283;DHT22;32017;43.700;11.820;2022-12-07T09:08:42;9.80;99.90
46283;DHT22;32017;43.700;11.820;2022-12-07T09:11:05;9.80;99.90
46283;DHT22;32017;43.700;11.820;2022-12-07T09:13:25;9.90;99.90
46283;DHT22;32017;43.700;11.820;2022-12-07T09:15:44;9.90;99.90
46283;DHT22;32017;43.700;11.820;2022-12-07T09:18:05;10.00;99.90
46283;DHT22;32017;43.700;11.820;2022-12-07T09:20:25;10.00;99.90
46283;DHT22;32017;43.700;11.820;2022-12-07T09:22:47;10.00;99.90
46283;DHT22;32017;43.700;11.820;2022-12-07T09:25:07;10.00;99.90
46283;DHT22;32017;43.700;11.820;2022-12-07T09:27:28;10.00;99.90
46283;DHT22;32017;43.700;11.820;2022-12-07T09:29:47;10.00;99.90
46283;DHT22;32017;43.700;11.820;2022-12-07T09:32:07;10.00;99.90
46283;DHT22;32017;43.700;11.820;2022-12-07T09:34:31;10.10;99.90
46283;DHT22;32017;43.700;11.820;2022-12-07T09:36:51;10.10;99.90
46283;DHT22;32017;43.700;11.820;2022-12-07T09:39:11;10.10;99.90
46283;DHT22;32017;43.700;11.820;2022-12-07T09:41:32;10.20;99.90
46283;DHT22;32017;43.700;11.820;2022-12-07T09:43:53;10.20;99.90
46283;DHT22;32017;43.700;11.820;2022-12-07T09:46:19;10.40;99.90
46283;DHT22;32017;43.700;11.820;2022-12-07T09:48:40;10.50;99.90
46283;DHT22;32017;43.700;11.820;2022-12-07T09:51:02;10.50;99.90
46283;DHT22;32017;43.700;11.820;2022-12-07T09:53:37;10.50;99.90
46283;DHT22;32017;43.700;11.820;2022-12-07T09:55:57;10.50;99.90
46283;DHT22;32017;43.700;11.820;2022-12-07T09:58:22;10.50;99.90
46283;DHT22;32017;43.700;11.820;2022-12-07T10:00:43;10.50;99.90
46283;DHT22;32017;43.700;11.820;2022-12-07T10:03:03;10.60;99.90
46283;DHT22;32017;43.700;11.820;2022-12-07T10:07:46;10.70;99.90
46283;DHT22;32017;43.700;11.820;2022-12-07T10:10:14;10.70;99.90
46283;DHT22;32017;43.700;11.820;2022-12-07T10:12:56;10.80;99.90
46283;DHT22;32017;43.700;11.820;2022-12-07T10:15:17;10.70;99.90
46283;DHT22;32017;43.700;11.820;2022-12-07T10:17:39;10.80;99.90
46283;DHT22;32017;43.700;11.820;2022-12-07T10:20:25;10.80;99.90
46283;DHT22;32017;43.700;11.820;2022-12-07T10:23:04;10.80;99.90
46283;DHT22;32017;43.700;11.820;2022-12-07T10:25:28;10.80;99.90
46283;DHT22;32017;43.700;11.820;2022-12-07T10:28:00;10.80;99.90
46283;DHT22;32017;43.700;11.820;2022-12-07T10:30:21;10.90;99.90
46283;DHT22;32017;43.700;11.820;2022-12-07T10:32:41;10.90;99.90
46283;DHT22;32017;43.700;11.820;2022-12-07T10:35:29;11.00;99.90
46283;DHT22;32017;43.700;11.820;2022-12-07T10:37:49;11.00;99.90
46283;DHT22;32017;43.700;11.820;2022-12-07T10:40:33;10.90;99.90
46283;DHT22;32017;43.700;11.820;2022-12-07T10:43:17;10.70;99.90
46283;DHT22;32017;43.700;11.820;2022-12-07T10:57:14;11.10;99.90
46283;DHT22;32017;43.700;11.820;2022-12-07T10:59:56;11.50;99.90
46283;DHT22;32017;43.700;11.820;2022-12-07T11:02:23;11.90;99.90
46283;DHT22;32017;43.700;11.820;2022-12-07T11:05:10;11.80;99.90
46283;DHT22;32017;43.700;11.820;2022-12-07T11:11:26;11.50;99.90
46283;DHT22;32017;43.700;11.820;2022-12-07T11:18:33;11.50;99.90
46283;DHT22;32017;43.700;11.820;2022-12-07T11:21:19;11.60;99.90
46283;DHT22;32017;43.700;11.820;2022-12-07T11:24:20;11.60;99.90
46283;DHT22;32017;43.700;11.820;2022-12-07T11:35:59;11.40;99.90
46283;DHT22;32017;43.700;11.820;2022-12-07T11:37:46;11.40;99.90
46283;DHT22;32017;43.700;11.820;2022-12-07T11:40:34;11.50;99.90
46283;DHT22;32017;43.700;11.820;2022-12-07T11:43:14;11.50;99.90
46283;DHT22;32017;43.700;11.820;2022-12-07T11:45:40;11.40;99.90
46283;DHT22;32017;43.700;11.820;2022-12-07T11:48:06;11.40;99.90
46283;DHT22;32017;43.700;11.820;2022-12-07T11:50:48;11.70;99.90
46283;DHT22;32017;43.700;11.820;2022-12-07T11:53:40;11.80;99.90
46283;DHT22;32017;43.700;11.820;2022-12-07T11:56:09;12.00;99.90
46283;DHT22;32017;43.700;11.820;2022-12-07T12:01:00;11.80;99.90
46283;DHT22;32017;43.700;11.820;2022-12-07T12:03:32;11.70;99.90
46283;DHT22;32017;43.700;11.820;2022-12-07T12:05:54;11.50;99.90
46283;DHT22;32017;43.700;11.820;2022-12-07T12:08:18;11.50;99.90
46283;DHT22;32017;43.700;11.820;2022-12-07T12:13:32;11.80;99.90
46283;DHT22;32017;43.700;11.820;2022-12-07T12:19:02;11.90;99.90
46283;DHT22;32017;43.700;11.820;2022-12-07T12:21:28;12.10;99.90
46283;DHT22;32017;43.700;11.820;2022-12-07T12:23:59;12.10;99.90
46283;DHT22;32017;43.700;11.820;2022-12-07T12:26:27;12.30;99.90
46283;DHT22;32017;43.700;11.820;2022-12-07T12:28:56;12.30;99.90
46283;DHT22;32017;43.700;11.820;2022-12-07T12:33:47;12.40;99.90
46283;DHT22;32017;43.700;11.820;2022-12-07T12:36:20;12.50;99.90
46283;DHT22;32017;43.700;11.820;2022-12-07T12:43:56;12.60;99.90
46283;DHT22;32017;43.700;11.820;2022-12-07T12:51:39;12.30;99.90
46283;DHT22;32017;43.700;11.820;2022-12-07T12:54:12;12.30;99.90
46283;DHT22;32017;43.700;11.820;2022-12-07T12:59:22;12.50;99.90
46283;DHT22;32017;43.700;11.820;2022-12-07T13:01:43;12.50;99.90
46283;DHT22;32017;43.700;11.820;2022-12-07T13:04:17;12.30;99.90
46283;DHT22;32017;43.700;11.820;2022-12-07T13:06:38;12.20;99.90
46283;DHT22;32017;43.700;11.820;2022-12-07T13:08:59;12.20;99.90
46283;DHT22;32017;43.700;11.820;2022-12-07T13:11:29;12.10;99.90
46283;DHT22;32017;43.700;11.820;2022-12-07T13:13:51;12.10;99.90
46283;DHT22;32017;43.700;11.820;2022-12-07T13:20:55;12.10;99.90
46283;DHT22;32017;43.700;11.820;2022-12-07T13:24:07;12.00;99.90
46283;DHT22;32017;43.700;11.820;2022-12-07T13:28:39;12.00;99.90
46283;DHT22;32017;43.700;11.820;2022-12-07T13:31:14;12.10;99.90
46283;DHT22;32017;43.700;11.820;2022-12-07T13:33:35;12.00;99.90
46283;DHT22;32017;43.700;11.820;2022-12-07T13:35:56;12.00;99.90
46283;DHT22;32017;43.700;11.820;2022-12-07T13:38:29;12.10;99.90
46283;DHT22;32017;43.700;11.820;2022-12-07T13:41:05;12.00;99.90
46283;DHT22;32017;43.700;11.820;2022-12-07T13:43:30;12.00;99.90
46283;DHT22;32017;43.700;11.820;2022-12-07T13:45:57;12.00;99.90
46283;DHT22;32017;43.700;11.820;2022-12-07T13:51:20;12.10;99.90
46283;DHT22;32017;43.700;11.820;2022-12-07T13:53:47;12.20;99.90
46283;DHT22;32017;43.700;11.820;2022-12-07T13:56:14;12.30;99.90
46283;DHT22;32017;43.700;11.820;2022-12-07T13:58:34;12.40;99.90
46283;DHT22;32017;43.700;11.820;2022-12-07T14:00:54;12.30;99.90
46283;DHT22;32017;43.700;11.820;2022-12-07T14:05:35;12.30;99.90
46283;DHT22;32017;43.700;11.820;2022-12-07T14:08:01;12.30;99.90
46283;DHT22;32017;43.700;11.820;2022-12-07T14:10:36;12.20;99.90
46283;DHT22;32017;43.700;11.820;2022-12-07T14:12:57;12.30;99.90
46283;DHT22;32017;43.700;11.820;2022-12-07T14:15:23;12.30;99.90
46283;DHT22;32017;43.700;11.820;2022-12-07T14:17:54;12.40;99.90
46283;DHT22;32017;43.700;11.820;2022-12-07T14:22:56;12.60;99.90
46283;DHT22;32017;43.700;11.820;2022-12-07T14:27:38;12.80;99.90
46283;DHT22;32017;43.700;11.820;2022-12-07T14:30:03;12.70;99.90
46283;DHT22;32017;43.700;11.820;2022-12-07T14:32:27;12.60;99.90
46283;DHT22;32017;43.700;11.820;2022-12-07T14:35:01;12.40;99.90
46283;DHT22;32017;43.700;11.820;2022-12-07T14:37:21;12.30;99.90
46283;DHT22;32017;43.700;11.820;2022-12-07T14:39:41;12.40;99.90
46283;DHT22;32017;43.700;11.820;2022-12-07T14:42:01;12.50;99.90
46283;DHT22;32017;43.700;11.820;2022-12-07T14:44:24;12.40;99.90
46283;DHT22;32017;43.700;11.820;2022-12-07T14:46:53;12.30;99.90
46283;DHT22;32017;43.700;11.820;2022-12-07T14:49:33;12.10;99.90
46283;DHT22;32017;43.700;11.820;2022-12-07T14:51:53;12.00;99.90
46283;DHT22;32017;43.700;11.820;2022-12-07T14:54:33;11.90;99.90
46283;DHT22;32017;43.700;11.820;2022-12-07T14:56:54;11.80;99.90
46283;DHT22;32017;43.700;11.820;2022-12-07T14:59:14;11.70;99.90
46283;DHT22;32017;43.700;11.820;2022-12-07T15:01:34;11.70;99.90
46283;DHT22;32017;43.700;11.820;2022-12-07T15:03:54;11.60;99.90
46283;DHT22;32017;43.700;11.820;2022-12-07T15:06:16;11.60;99.90
46283;DHT22;32017;43.700;11.820;2022-12-07T15:08:36;11.60;99.90
46283;DHT22;32017;43.700;11.820;2022-12-07T15:10:56;11.40;99.90
46283;DHT22;32017;43.700;11.820;2022-12-07T15:13:16;11.40;99.90
46283;DHT22;32017;43.700;11.820;2022-12-07T15:15:55;11.30;99.90
46283;DHT22;32017;43.700;11.820;2022-12-07T15:18:15;11.30;99.90
46283;DHT22;32017;43.700;11.820;2022-12-07T15:20:35;11.20;99.90
46283;DHT22;32017;43.700;11.820;2022-12-07T15:22:55;11.10;99.90
46283;DHT22;32017;43.700;11.820;2022-12-07T15:25:16;11.00;99.90
46283;DHT22;32017;43.700;11.820;2022-12-07T15:27:36;11.00;99.90
46283;DHT22;32017;43.700;11.820;2022-12-07T15:29:57;10.80;99.90
46283;DHT22;32017;43.700;11.820;2022-12-07T15:32:17;10.80;99.90
46283;DHT22;32017;43.700;11.820;2022-12-07T15:34:37;10.60;99.90
46283;DHT22;32017;43.700;11.820;2022-12-07T15:37:00;10.50;99.90
46283;DHT22;32017;43.700;11.820;2022-12-07T15:39:19;10.40;99.90
46283;DHT22;32017;43.700;11.820;2022-12-07T15:41:41;10.30;99.90
46283;DHT22;32017;43.700;11.820;2022-12-07T15:44:01;10.40;99.90
46283;DHT22;32017;43.700;11.820;2022-12-07T15:46:40;10.40;99.90
46283;DHT22;32017;43.700;11.820;2022-12-07T15:49:01;10.30;99.90
46283;DHT22;32017;43.700;11.820;2022-12-07T15:51:21;10.40;99.90
46283;DHT22;32017;43.700;11.820;2022-12-07T15:53:44;10.30;99.90
46283;DHT22;32017;43.700;11.820;2022-12-07T15:56:07;10.20;99.90
46283;DHT22;32017;43.700;11.820;2022-12-07T15:58:27;10.10;99.90
46283;DHT22;32017;43.700;11.820;2022-12-07T16:00:47;10.10;99.90
46283;DHT22;32017;43.700;11.820;2022-12-07T16:03:07;10.10;99.90
46283;DHT22;32017;43.700;11.820;2022-12-07T16:05:27;10.10;99.90
46283;DHT22;32017;43.700;11.820;2022-12-07T16:07:47;10.10;99.90
46283;DHT22;32017;43.700;11.820;2022-12-07T16:10:07;10.10;99.90
46283;DHT22;32017;43.700;11.820;2022-12-07T16:12:27;10.10;99.90
46283;DHT22;32017;43.700;11.820;2022-12-07T16:14:47;10.00;99.90
46283;DHT22;32017;43.700;11.820;2022-12-07T16:17:08;9.90;99.90
46283;DHT22;32017;43.700;11.820;2022-12-07T16:19:28;9.80;99.90
46283;DHT22;32017;43.700;11.820;2022-12-07T16:21:48;9.80;99.90
46283;DHT22;32017;43.700;11.820;2022-12-07T16:24:08;9.70;99.90
46283;DHT22;32017;43.700;11.820;2022-12-07T16:26:27;9.50;99.90
46283;DHT22;32017;43.700;11.820;2022-12-07T16:28:51;9.40;99.90
46283;DHT22;32017;43.700;11.820;2022-12-07T16:31:15;9.40;99.90
46283;DHT22;32017;43.700;11.820;2022-12-07T16:33:36;9.40;99.90
46283;DHT22;32017;43.700;11.820;2022-12-07T16:35:58;9.30;99.90
46283;DHT22;32017;43.700;11.820;2022-12-07T16:38:18;9.20;99.90
46283;DHT22;32017;43.700;11.820;2022-12-07T16:40:38;9.10;99.90
46283;DHT22;32017;43.700;11.820;2022-12-07T16:42:57;9.10;99.90
46283;DHT22;32017;43.700;11.820;2022-12-07T16:45:18;9.00;99.90